createdAt,value
2019-02-17T00:01:08.798Z,22.73
2019-02-17T00:03:39.166Z,23.90
2019-02-17T00:06:08.123Z,24.30
2019-02-17T00:08:37.144Z,22.63
2019-02-17T00:11:06.158Z,21.87
2019-02-17T00:13:35.132Z,23.07
2019-02-17T00:16:04.249Z,23.07
2019-02-17T00:18:33.328Z,22.87
2019-02-17T00:21:02.362Z,23.00
2019-02-17T00:23:31.351Z,22.33
2019-02-17T00:26:00.350Z,23.30
2019-02-17T00:28:29.412Z,21.70
2019-02-17T00:30:58.446Z,22.83
2019-02-17T00:33:27.518Z,24.53
2019-02-17T00:35:56.578Z,24.13
2019-02-17T00:38:25.718Z,22.97
2019-02-17T00:40:54.781Z,24.27
2019-02-17T00:43:23.854Z,23.50
2019-02-17T00:45:52.839Z,23.57
2019-02-17T00:48:21.882Z,23.70
2019-02-17T00:50:50.922Z,23.53
2019-02-17T00:53:19.898Z,22.93
2019-02-17T00:55:48.922Z,23.40
2019-02-17T00:58:17.932Z,22.43
2019-02-17T01:00:47.070Z,22.37
2019-02-17T01:03:16.152Z,24.33
2019-02-17T01:05:45.217Z,22.50
2019-02-17T01:08:14.139Z,23.10
2019-02-17T01:10:43.119Z,23.17
2019-02-17T01:13:12.128Z,22.73
2019-02-17T01:15:41.152Z,23.37
2019-02-17T01:18:10.121Z,23.70
2019-02-17T01:20:39.142Z,22.77
2019-02-17T01:23:08.183Z,24.07
2019-02-17T01:25:37.206Z,23.60
2019-02-17T01:28:06.207Z,22.23
2019-02-17T01:30:35.232Z,22.57
2019-02-17T01:33:04.378Z,24.30
2019-02-17T01:35:33.335Z,22.60
2019-02-17T01:38:02.290Z,23.53
2019-02-17T01:40:31.337Z,23.37
2019-02-17T01:43:00.393Z,22.77
2019-02-17T01:45:29.415Z,23.73
2019-02-17T01:47:58.489Z,22.73
2019-02-17T01:50:27.473Z,24.60
2019-02-17T01:52:56.612Z,22.83
2019-02-17T01:55:25.718Z,22.37
2019-02-17T01:57:54.724Z,23.67
2019-02-17T02:00:23.769Z,24.63
2019-02-17T02:02:52.812Z,23.50
2019-02-17T02:05:21.821Z,23.73
2019-02-17T02:07:50.897Z,23.60
2019-02-17T02:10:19.907Z,23.80
2019-02-17T02:12:48.937Z,22.73
2019-02-17T02:15:18.013Z,23.03
2019-02-17T02:17:47.093Z,23.60
2019-02-17T02:20:16.223Z,23.27
2019-02-17T02:22:45.344Z,23.10
2019-02-17T02:25:14.312Z,22.47
2019-02-17T02:27:43.388Z,22.23
2019-02-17T02:30:12.879Z,23.37
2019-02-17T02:32:41.934Z,22.80
2019-02-17T02:35:11.004Z,22.30
2019-02-17T02:37:40.028Z,23.90
2019-02-17T02:40:09.061Z,23.30
2019-02-17T02:42:38.220Z,22.10
2019-02-17T02:45:08.109Z,22.67
2019-02-17T02:47:37.239Z,23.07
2019-02-17T02:50:06.577Z,22.70
2019-02-17T02:52:35.590Z,21.27
2019-02-17T02:55:04.807Z,22.57
2019-02-17T02:57:33.849Z,22.23
2019-02-17T03:00:02.915Z,22.77
2019-02-17T03:02:31.965Z,23.13
2019-02-17T03:05:01.035Z,21.70
2019-02-17T03:07:30.080Z,21.30
2019-02-17T03:09:59.222Z,21.83
2019-02-17T03:12:28.280Z,22.47
2019-02-17T03:14:57.422Z,22.13
2019-02-17T03:17:26.865Z,22.63
2019-02-17T03:19:55.978Z,22.83
2019-02-17T03:22:24.918Z,22.87
2019-02-17T03:24:53.955Z,22.27
2019-02-17T03:27:23.341Z,22.80
2019-02-17T03:30:04.060Z,22.50
2019-02-17T03:32:23.132Z,21.03
2019-02-17T03:34:52.156Z,22.00
2019-02-17T03:37:21.171Z,21.90
2019-02-17T03:39:50.190Z,23.00
2019-02-17T03:42:19.282Z,24.20
2019-02-17T03:44:48.297Z,21.47
2019-02-17T03:47:17.411Z,21.60
2019-02-17T03:49:46.518Z,21.63
2019-02-17T03:52:15.527Z,21.80
2019-02-17T03:54:44.520Z,22.57
2019-02-17T03:57:13.527Z,23.40
2019-02-17T03:59:42.483Z,21.43
2019-02-17T04:02:11.508Z,22.80
2019-02-17T04:04:40.568Z,22.17
2019-02-17T04:07:09.744Z,21.17
2019-02-17T04:09:38.714Z,22.53
2019-02-17T04:12:07.742Z,22.53
2019-02-17T04:14:36.791Z,23.33
2019-02-17T04:17:05.822Z,20.97
2019-02-17T04:19:34.833Z,21.60
2019-02-17T04:22:03.855Z,22.37
2019-02-17T04:24:32.848Z,21.90
2019-02-17T04:27:01.860Z,21.67
2019-02-17T04:29:30.895Z,21.67
2019-02-17T04:31:59.930Z,21.73
2019-02-17T04:34:28.884Z,23.23
2019-02-17T04:36:57.934Z,22.10
2019-02-17T04:39:26.881Z,22.10
2019-02-17T04:41:55.896Z,21.80
2019-02-17T04:44:24.874Z,22.10
2019-02-17T04:46:53.929Z,20.33
2019-02-17T04:49:22.982Z,21.77
2019-02-17T04:51:52.001Z,21.03
2019-02-17T04:54:20.977Z,21.80
2019-02-17T04:56:49.959Z,22.33
2019-02-17T04:59:19.025Z,22.93
2019-02-17T05:01:48.052Z,22.07
2019-02-17T05:04:17.067Z,22.83
2019-02-17T05:06:46.120Z,20.83
2019-02-17T05:09:15.179Z,21.87
2019-02-17T05:11:44.261Z,22.67
2019-02-17T05:14:13.300Z,20.67
2019-02-17T05:16:42.328Z,22.33
2019-02-17T05:19:11.374Z,21.07
2019-02-17T05:21:40.433Z,21.97
2019-02-17T05:24:09.492Z,22.10
2019-02-17T05:26:38.559Z,22.27
2019-02-17T05:29:07.602Z,21.73
2019-02-17T05:31:36.636Z,22.00
2019-02-17T05:34:05.601Z,20.37
2019-02-17T05:36:34.576Z,21.70
2019-02-17T05:39:05.742Z,22.10
2019-02-17T05:41:34.781Z,21.37
2019-02-17T05:44:03.802Z,22.07
2019-02-17T05:46:32.800Z,20.63
2019-02-17T05:49:01.822Z,20.30
2019-02-17T05:51:30.823Z,22.40
2019-02-17T05:53:59.814Z,20.73
2019-02-17T05:56:28.827Z,20.43
2019-02-17T05:59:17.053Z,21.23
2019-02-17T06:01:46.058Z,20.50
2019-02-17T06:04:15.183Z,21.50
2019-02-17T06:06:44.195Z,21.57
2019-02-17T06:09:13.210Z,20.53
2019-02-17T06:11:42.273Z,20.50
2019-02-17T06:14:11.267Z,19.60
2019-02-17T06:16:40.280Z,20.57
2019-02-17T06:19:09.303Z,21.47
2019-02-17T06:21:38.346Z,20.90
2019-02-17T06:24:07.342Z,20.83
2019-02-17T06:26:36.297Z,19.03
2019-02-17T06:29:05.323Z,20.27
2019-02-17T06:31:34.290Z,20.60
2019-02-17T06:34:03.311Z,20.73
2019-02-17T06:36:32.368Z,19.80
2019-02-17T06:39:01.384Z,21.87
2019-02-17T06:41:30.425Z,20.77
2019-02-17T06:43:59.482Z,20.10
2019-02-17T06:46:32.303Z,20.60
2019-02-17T06:49:01.400Z,21.10
2019-02-17T06:51:30.442Z,20.63
2019-02-17T06:54:01.599Z,20.30
2019-02-17T06:56:35.554Z,20.77
2019-02-17T06:59:04.560Z,19.97
2019-02-17T07:01:33.697Z,18.83
2019-02-17T07:04:03.858Z,21.40
2019-02-17T07:06:42.524Z,20.47
2019-02-17T07:09:11.552Z,19.40
2019-02-17T07:11:40.645Z,20.23
2019-02-17T07:14:11.122Z,20.80
2019-02-17T07:16:40.211Z,19.77
2019-02-17T07:19:09.255Z,21.33
2019-02-17T07:21:57.489Z,20.23
2019-02-17T07:24:26.573Z,19.63
2019-02-17T07:26:55.625Z,20.73
2019-02-17T07:29:24.624Z,19.43
2019-02-17T07:31:54.884Z,19.10
2019-02-17T07:34:23.905Z,20.23
2019-02-17T07:36:52.959Z,20.37
2019-02-17T07:39:22.040Z,20.40
2019-02-17T07:41:51.074Z,19.77
2019-02-17T07:44:20.125Z,18.13
2019-02-17T07:46:49.255Z,19.10
2019-02-17T07:49:18.333Z,19.43
2019-02-17T07:51:47.363Z,19.47
2019-02-17T07:54:16.318Z,18.70
2019-02-17T07:56:45.364Z,19.73
2019-02-17T07:59:14.441Z,18.83
2019-02-17T08:01:45.604Z,18.97
2019-02-17T08:04:14.205Z,17.80
2019-02-17T08:06:43.255Z,19.63
2019-02-17T08:09:12.195Z,18.60
2019-02-17T08:11:41.219Z,20.13
2019-02-17T08:14:10.248Z,18.60
2019-02-17T08:16:39.232Z,18.77
2019-02-17T08:19:08.255Z,18.47
2019-02-17T08:21:37.257Z,19.53
2019-02-17T08:24:06.253Z,18.80
2019-02-17T08:26:35.272Z,18.37
2019-02-17T08:29:04.302Z,19.13
2019-02-17T08:31:33.308Z,20.67
2019-02-17T08:34:02.416Z,18.43
2019-02-17T08:36:50.657Z,19.70
2019-02-17T08:39:19.701Z,18.90
2019-02-17T08:41:48.679Z,18.97
2019-02-17T08:44:17.787Z,19.33
2019-02-17T08:46:47.074Z,18.60
2019-02-17T08:49:16.098Z,18.80
2019-02-17T08:51:45.129Z,19.33
2019-02-17T08:54:14.169Z,19.47
2019-02-17T08:56:43.199Z,17.60
2019-02-17T08:59:12.208Z,17.90
2019-02-17T09:01:41.251Z,19.47
2019-02-17T09:04:10.252Z,19.00
2019-02-17T09:06:39.273Z,17.97
2019-02-17T09:09:08.306Z,18.57
2019-02-17T09:11:37.282Z,18.00
2019-02-17T09:14:06.290Z,18.77
2019-02-17T09:16:35.218Z,17.37
2019-02-17T09:19:04.352Z,17.87
2019-02-17T09:21:33.417Z,17.17
2019-02-17T09:24:02.434Z,17.40
2019-02-17T09:26:31.438Z,17.73
2019-02-17T09:29:00.545Z,17.53
2019-02-17T09:31:29.677Z,16.93
2019-02-17T09:33:58.700Z,16.00
2019-02-17T09:36:27.711Z,16.80
2019-02-17T09:38:56.820Z,16.70
2019-02-17T09:41:25.824Z,16.00
2019-02-17T09:43:54.928Z,15.57
2019-02-17T09:46:24.005Z,16.17
2019-02-17T09:48:52.965Z,15.43
2019-02-17T09:51:21.924Z,14.97
2019-02-17T09:53:50.984Z,15.47
2019-02-17T09:56:20.056Z,15.67
2019-02-17T09:58:49.106Z,15.13
2019-02-17T10:01:18.146Z,15.07
2019-02-17T10:03:47.177Z,15.23
2019-02-17T10:06:16.218Z,14.13
2019-02-17T10:08:45.298Z,13.40
2019-02-17T10:11:14.323Z,14.87
2019-02-17T10:13:43.251Z,14.37
2019-02-17T10:16:12.283Z,14.27
2019-02-17T10:18:41.221Z,13.40
2019-02-17T10:21:10.234Z,13.63
2019-02-17T10:23:39.302Z,13.57
2019-02-17T10:26:08.426Z,13.57
2019-02-17T10:28:42.463Z,14.03
2019-02-17T10:31:08.141Z,14.20
2019-02-17T10:33:37.175Z,12.87
2019-02-17T10:36:06.153Z,12.57
2019-02-17T10:38:35.238Z,13.17
2019-02-17T10:41:04.286Z,13.17
2019-02-17T10:43:33.329Z,12.20
2019-02-17T10:46:02.350Z,11.40
2019-02-17T10:48:31.300Z,12.20
2019-02-17T10:51:00.275Z,11.43
2019-02-17T10:53:29.245Z,11.97
2019-02-17T10:55:58.307Z,11.37
2019-02-17T10:58:27.308Z,10.40
2019-02-17T11:00:56.394Z,10.57
2019-02-17T11:03:25.539Z,10.03
2019-02-17T11:05:54.618Z,10.97
2019-02-17T11:08:23.691Z,10.47
2019-02-17T11:10:52.748Z,10.60
2019-02-17T11:13:21.809Z,10.30
2019-02-17T11:15:50.743Z,10.90
2019-02-17T11:18:19.793Z,11.17
2019-02-17T11:20:48.824Z,10.53
2019-02-17T11:23:17.858Z,9.73
2019-02-17T11:25:46.910Z,9.23
2019-02-17T11:28:16.074Z,9.70
2019-02-17T11:30:45.099Z,10.67
2019-02-17T11:33:14.179Z,10.63
2019-02-17T11:35:43.246Z,10.37
2019-02-17T11:38:12.362Z,9.40
2019-02-17T11:40:41.361Z,9.90
2019-02-17T11:43:10.381Z,9.03
2019-02-17T11:45:39.406Z,8.83
2019-02-17T11:48:08.523Z,10.07
2019-02-17T11:50:37.593Z,10.07
2019-02-17T11:53:06.689Z,8.83
2019-02-17T11:55:35.697Z,8.63
2019-02-17T11:58:04.742Z,9.20
2019-02-17T12:00:33.746Z,8.50
2019-02-17T12:03:07.941Z,9.50
2019-02-17T12:05:33.522Z,8.70
2019-02-17T12:08:02.526Z,9.00
2019-02-17T12:10:31.595Z,10.80
2019-02-17T12:13:00.612Z,9.63
2019-02-17T12:15:29.641Z,8.37
2019-02-17T12:17:59.385Z,9.10
2019-02-17T12:20:46.026Z,9.13
2019-02-17T12:23:18.969Z,9.37
2019-02-17T12:26:05.828Z,8.50
2019-02-17T12:28:56.777Z,9.00
2019-02-17T12:31:29.024Z,9.83
2019-02-17T12:33:57.998Z,8.13
2019-02-17T12:36:27.055Z,8.77
2019-02-17T12:38:56.139Z,10.07
2019-02-17T12:41:25.141Z,9.77
2019-02-17T12:43:54.245Z,9.83
2019-02-17T12:46:23.264Z,9.43
2019-02-17T12:48:52.282Z,10.80
2019-02-17T12:51:21.330Z,10.07
2019-02-17T12:53:50.414Z,10.37
2019-02-17T12:56:19.493Z,9.30
2019-02-17T12:58:48.522Z,10.97
2019-02-17T13:01:17.480Z,9.57
2019-02-17T13:03:46.480Z,9.90
2019-02-17T13:06:15.560Z,11.33
2019-02-17T13:08:44.645Z,9.90
2019-02-17T13:11:13.641Z,11.60
2019-02-17T13:13:42.695Z,11.17
2019-02-17T13:16:11.763Z,10.67
2019-02-17T13:18:40.809Z,11.10
2019-02-17T13:21:09.840Z,9.90
2019-02-17T13:23:38.882Z,9.73
2019-02-17T13:26:07.923Z,9.00
2019-02-17T13:28:36.904Z,9.17
2019-02-17T13:31:05.961Z,10.00
2019-02-17T13:33:39.145Z,10.30
2019-02-17T13:36:05.728Z,10.13
2019-02-17T13:38:34.779Z,9.30
2019-02-17T13:41:03.788Z,11.13
2019-02-17T13:43:32.805Z,9.40
2019-02-17T13:46:01.933Z,10.13
2019-02-17T13:48:30.996Z,10.93
2019-02-17T13:51:00.039Z,10.53
2019-02-17T13:53:29.074Z,9.93
2019-02-17T13:55:58.113Z,10.67
2019-02-17T13:58:27.142Z,9.63
2019-02-17T14:00:56.151Z,9.30
2019-02-17T14:03:25.189Z,8.30
2019-02-17T14:05:54.192Z,8.57
2019-02-17T14:08:23.233Z,9.53
2019-02-17T14:10:52.309Z,9.47
2019-02-17T14:13:21.305Z,9.40
2019-02-17T14:15:50.313Z,9.80
2019-02-17T14:18:19.353Z,8.97
2019-02-17T14:20:48.496Z,9.20
2019-02-17T14:23:17.633Z,9.97
2019-02-17T14:25:46.765Z,9.70
2019-02-17T14:28:15.778Z,11.27
2019-02-17T14:30:44.787Z,9.03
2019-02-17T14:33:13.857Z,8.20
2019-02-17T14:35:42.899Z,8.30
2019-02-17T14:38:11.971Z,8.60
2019-02-17T14:40:41.011Z,9.73
2019-02-17T14:43:10.048Z,10.83
2019-02-17T14:45:39.098Z,10.33
2019-02-17T14:48:08.154Z,10.00
2019-02-17T14:50:37.282Z,9.67
2019-02-17T14:53:06.250Z,8.47
2019-02-17T14:55:35.241Z,9.47
2019-02-17T14:58:05.716Z,9.60
2019-02-17T15:00:35.013Z,8.57
2019-02-17T15:03:04.009Z,9.77
2019-02-17T15:05:33.065Z,9.93
2019-02-17T15:08:02.125Z,10.07
2019-02-17T15:10:31.171Z,10.70
2019-02-17T15:13:00.150Z,11.43
2019-02-17T15:15:29.136Z,9.53
2019-02-17T15:17:58.155Z,10.70
2019-02-17T15:20:27.144Z,10.20
2019-02-17T15:22:56.197Z,12.13
2019-02-17T15:25:25.173Z,9.80
2019-02-17T15:27:54.261Z,10.40
2019-02-17T15:30:23.320Z,10.90
2019-02-17T15:32:52.373Z,10.27
2019-02-17T15:35:40.607Z,11.07
2019-02-17T15:38:09.677Z,11.67
2019-02-17T15:40:38.724Z,12.47
2019-02-17T15:43:07.836Z,11.40
2019-02-17T15:45:38.053Z,11.40
2019-02-17T15:48:07.098Z,10.00
2019-02-17T15:50:36.045Z,10.37
2019-02-17T15:53:05.090Z,10.80
2019-02-17T15:55:34.054Z,11.10
2019-02-17T15:58:03.101Z,12.70
2019-02-17T16:00:32.135Z,10.80
2019-02-17T16:03:01.170Z,10.83
2019-02-17T16:05:30.207Z,12.10
2019-02-17T16:07:59.252Z,12.43
2019-02-17T16:10:28.351Z,12.67
2019-02-17T16:12:57.361Z,13.00
2019-02-17T16:15:26.502Z,11.17
2019-02-17T16:17:55.545Z,11.87
2019-02-17T16:20:24.583Z,10.73
2019-02-17T16:22:53.588Z,11.27
2019-02-17T16:25:22.641Z,12.27
2019-02-17T16:27:51.693Z,12.63
2019-02-17T16:30:20.777Z,12.33
2019-02-17T16:32:49.783Z,11.20
2019-02-17T16:35:18.741Z,11.63
2019-02-17T16:37:48.044Z,12.03
2019-02-17T16:40:17.159Z,11.97
2019-02-17T16:42:46.232Z,12.03
2019-02-17T16:45:15.276Z,11.60
2019-02-17T16:47:44.438Z,12.23
2019-02-17T16:50:15.896Z,10.43
2019-02-17T16:52:44.973Z,10.73
2019-02-17T16:55:14.070Z,11.00
2019-02-17T16:57:43.054Z,11.30
2019-02-17T17:00:14.745Z,10.47
2019-02-17T17:02:43.794Z,11.57
2019-02-17T17:05:12.800Z,11.63
2019-02-17T17:07:41.796Z,12.27
2019-02-17T17:10:10.833Z,12.53
2019-02-17T17:12:39.908Z,12.20
2019-02-17T17:15:09.005Z,11.77
2019-02-17T17:17:38.029Z,11.07
2019-02-17T17:20:07.778Z,11.27
2019-02-17T17:22:36.757Z,11.80
2019-02-17T17:25:06.301Z,11.40
2019-02-17T17:27:35.284Z,11.70
2019-02-17T17:30:04.810Z,12.50
2019-02-17T17:32:33.881Z,13.03
2019-02-17T17:35:03.021Z,13.23
2019-02-17T17:37:32.085Z,13.30
2019-02-17T17:40:01.153Z,13.20
2019-02-17T17:42:30.176Z,13.70
2019-02-17T17:44:59.177Z,14.70
2019-02-17T17:47:28.240Z,13.30
2019-02-17T17:49:57.246Z,14.73
2019-02-17T17:52:26.393Z,13.90
2019-02-17T17:54:55.485Z,14.13
2019-02-17T17:57:24.479Z,14.20
2019-02-17T17:59:53.494Z,13.93
2019-02-17T18:02:22.598Z,14.33
2019-02-17T18:04:51.615Z,14.73
2019-02-17T18:07:20.665Z,13.50
2019-02-17T18:09:49.702Z,14.00
2019-02-17T18:12:18.690Z,14.77
2019-02-17T18:14:47.734Z,13.37
2019-02-17T18:17:16.820Z,15.30
2019-02-17T18:19:45.856Z,13.80
2019-02-17T18:22:14.931Z,14.60
2019-02-17T18:24:44.201Z,13.83
2019-02-17T18:27:13.266Z,13.60
2019-02-17T18:29:42.307Z,13.33
2019-02-17T18:32:11.351Z,15.00
2019-02-17T18:34:40.380Z,13.90
2019-02-17T18:37:09.364Z,13.03
2019-02-17T18:39:38.467Z,13.77
2019-02-17T18:42:07.520Z,14.03
2019-02-17T18:44:36.547Z,13.03
2019-02-17T18:47:05.523Z,13.77
2019-02-17T18:49:34.556Z,13.03
2019-02-17T18:52:03.586Z,13.07
2019-02-17T18:54:34.617Z,13.63
2019-02-17T18:57:08.339Z,12.50
2019-02-17T18:59:34.313Z,12.73
2019-02-17T19:02:03.299Z,12.43
2019-02-17T19:04:32.407Z,12.33
2019-02-17T19:07:01.519Z,13.63
2019-02-17T19:09:30.587Z,12.87
2019-02-17T19:11:59.641Z,12.73
2019-02-17T19:14:28.639Z,13.63
2019-02-17T19:16:57.705Z,12.13
2019-02-17T19:19:26.739Z,12.80
2019-02-17T19:21:55.769Z,12.57
2019-02-17T19:24:24.833Z,13.07
2019-02-17T19:26:53.922Z,12.73
2019-02-17T19:29:23.006Z,13.13
2019-02-17T19:31:52.153Z,12.53
2019-02-17T19:34:21.229Z,12.57
2019-02-17T19:36:50.337Z,12.70
2019-02-17T19:39:19.391Z,12.50
2019-02-17T19:42:07.634Z,11.40
2019-02-17T19:44:36.784Z,11.77
2019-02-17T19:47:05.805Z,11.67
2019-02-17T19:49:34.863Z,11.20
2019-02-17T19:52:03.927Z,11.13
2019-02-17T19:54:33.030Z,10.63
2019-02-17T19:57:02.284Z,11.27
2019-02-17T19:59:31.322Z,11.10
2019-02-17T20:02:00.386Z,10.60
2019-02-17T20:04:32.375Z,11.37
2019-02-17T20:07:01.449Z,10.57
2019-02-17T20:09:30.505Z,10.43
2019-02-17T20:11:59.510Z,10.47
2019-02-17T20:14:28.512Z,9.97
2019-02-17T20:16:57.548Z,10.73
2019-02-17T20:19:26.493Z,10.90
2019-02-17T20:21:55.660Z,11.67
2019-02-17T20:24:24.705Z,10.93
2019-02-17T20:26:53.765Z,10.50
2019-02-17T20:29:22.933Z,10.50
2019-02-17T20:31:52.004Z,11.33
2019-02-17T20:34:21.039Z,11.73
2019-02-17T20:36:50.086Z,11.30
2019-02-17T20:39:19.146Z,10.67
2019-02-17T20:41:48.125Z,11.10
2019-02-17T20:44:17.172Z,11.50
2019-02-17T20:46:46.267Z,10.93
2019-02-17T20:49:15.268Z,10.33
2019-02-17T20:51:44.290Z,10.30
2019-02-17T20:54:13.255Z,9.50
2019-02-17T20:56:42.225Z,10.20
2019-02-17T20:59:11.259Z,9.77
2019-02-17T21:01:40.293Z,10.23
2019-02-17T21:04:09.308Z,9.93
2019-02-17T21:06:38.340Z,10.07
2019-02-17T21:09:07.406Z,10.43
2019-02-17T21:11:36.436Z,10.13
2019-02-17T21:14:05.494Z,11.13
2019-02-17T21:16:34.549Z,10.20
2019-02-17T21:19:03.572Z,10.40
2019-02-17T21:21:32.550Z,10.77
2019-02-17T21:24:01.530Z,10.17
2019-02-17T21:26:30.530Z,10.17
2019-02-17T21:28:59.493Z,10.77
2019-02-17T21:31:28.494Z,9.83
2019-02-17T21:33:57.566Z,9.70
2019-02-17T21:36:26.499Z,9.77
2019-02-17T21:38:55.525Z,10.00
2019-02-17T21:41:24.692Z,10.13
2019-02-17T21:43:53.828Z,10.77
2019-02-17T21:46:22.886Z,10.30
2019-02-17T21:48:51.909Z,10.00
2019-02-17T21:51:40.117Z,9.93
2019-02-17T21:54:09.256Z,10.67
2019-02-17T21:56:38.323Z,10.13
2019-02-17T21:59:07.342Z,10.43
2019-02-17T22:01:36.378Z,9.60
2019-02-17T22:04:05.433Z,9.90
2019-02-17T22:06:34.504Z,10.63
2019-02-17T22:09:04.204Z,9.90
2019-02-17T22:11:33.274Z,10.33
2019-02-17T22:14:02.325Z,9.33
2019-02-17T22:16:31.397Z,9.80
2019-02-17T22:19:00.534Z,10.30
2019-02-17T22:21:29.528Z,10.70
2019-02-17T22:23:58.616Z,9.83
2019-02-17T22:26:27.689Z,10.37
2019-02-17T22:28:56.701Z,9.70
2019-02-17T22:31:25.704Z,11.03
2019-02-17T22:33:54.777Z,10.33
2019-02-17T22:36:23.848Z,10.47
2019-02-17T22:38:53.045Z,10.63
2019-02-17T22:41:22.174Z,9.63
2019-02-17T22:43:51.153Z,9.70
2019-02-17T22:46:20.184Z,10.30
2019-02-17T22:48:49.261Z,10.47
2019-02-17T22:51:18.360Z,10.00
2019-02-17T22:53:47.387Z,10.47
2019-02-17T22:56:16.361Z,9.60
2019-02-17T22:58:45.413Z,9.90
2019-02-17T23:01:17.746Z,10.13
2019-02-17T23:03:46.770Z,10.47
2019-02-17T23:06:15.877Z,9.70
2019-02-17T23:08:44.900Z,9.83
2019-02-17T23:11:13.893Z,10.23
2019-02-17T23:13:42.878Z,10.33
2019-02-17T23:16:12.054Z,9.73
2019-02-17T23:18:41.137Z,10.37
2019-02-17T23:21:10.202Z,10.73
2019-02-17T23:23:39.259Z,10.90
2019-02-17T23:26:08.209Z,10.67
2019-02-17T23:28:37.229Z,10.10
2019-02-17T23:31:06.238Z,9.87
2019-02-17T23:33:35.217Z,10.80
2019-02-17T23:36:04.237Z,9.77
2019-02-17T23:38:33.338Z,10.63
2019-02-17T23:41:03.224Z,10.63
2019-02-17T23:43:32.358Z,10.40
2019-02-17T23:46:01.421Z,11.17
2019-02-17T23:48:30.462Z,10.43
2019-02-17T23:50:59.496Z,10.17
2019-02-17T23:53:28.593Z,9.90
2019-02-17T23:55:57.638Z,11.07
2019-02-17T23:58:26.645Z,10.70
